Time;durP1;ratioP1;P1;durP2;ratioP2;P2;SDS_P1;SDS_P2;PMS_P1;PMS_P2;Temp;Humidity;BMP_temperature;BMP_pressure;BME280_temperature;BME280_humidity;BME280_pressure;Samples;Min_cycle;Max_cycle;Signal;HPM_P1;HPM_P2
2024/01/16 00:00:11;;;;;;;9.80;2.42;;;0.60;99.90;;;;;;5060654;28;20390;-70
2024/01/16 00:02:36;;;;;;;9.38;2.30;;;0.60;99.90;;;;;;5060396;28;20032;-69
2024/01/16 00:05:02;;;;;;;7.88;2.67;;;0.70;99.90;;;;;;5060621;28;20045;-70
2024/01/16 00:07:33;;;;;;;8.32;2.17;;;0.70;99.90;;;;;;5060851;28;20064;-70
2024/01/16 00:09:59;;;;;;;6.13;2.03;;;0.60;99.90;;;;;;5061092;28;20065;-71
2024/01/16 00:12:27;;;;;;;9.95;2.55;;;0.60;99.90;;;;;;5060532;28;20029;-71
2024/01/16 00:14:53;;;;;;;11.48;1.98;;;0.60;99.90;;;;;;5061051;28;21447;-70
2024/01/16 00:17:19;;;;;;;6.05;1.95;;;0.60;99.90;;;;;;5060437;28;20013;-71
2024/01/16 00:19:48;;;;;;;7.50;2.13;;;0.60;99.90;;;;;;5060719;28;20029;-70
2024/01/16 00:22:13;;;;;;;8.15;2.42;;;0.60;99.90;;;;;;5063549;28;20032;-70
2024/01/16 00:24:39;;;;;;;6.55;2.50;;;0.60;99.90;;;;;;5064721;28;20041;-69
2024/01/16 00:27:07;;;;;;;5.95;2.55;;;0.60;99.90;;;;;;5064674;28;20021;-69
2024/01/16 00:29:33;;;;;;;7.65;2.47;;;0.60;99.90;;;;;;5064784;28;20049;-70
2024/01/16 00:31:59;;;;;;;10.75;2.50;;;0.60;99.90;;;;;;5064491;28;20060;-71
2024/01/16 00:34:25;;;;;;;6.50;2.20;;;0.70;99.90;;;;;;5064397;28;20051;-71
2024/01/16 00:36:51;;;;;;;9.30;2.58;;;0.70;99.90;;;;;;5064856;28;20025;-70
2024/01/16 00:39:17;;;;;;;5.45;2.40;;;0.70;99.90;;;;;;5064761;28;20032;-71
2024/01/16 00:41:43;;;;;;;8.55;2.22;;;0.70;99.90;;;;;;5064258;28;20017;-70
2024/01/16 00:44:08;;;;;;;6.38;2.08;;;0.70;99.90;;;;;;5064572;28;20032;-69
2024/01/16 00:46:34;;;;;;;7.03;2.30;;;0.70;99.90;;;;;;5064538;28;20043;-70
2024/01/16 00:49:00;;;;;;;9.90;2.08;;;0.70;99.90;;;;;;5064467;28;20468;-71
2024/01/16 00:51:28;;;;;;;7.32;1.85;;;0.60;99.90;;;;;;5062906;28;20032;-70
2024/01/16 00:53:54;;;;;;;6.93;1.90;;;0.60;99.90;;;;;;5064411;28;20029;-69
2024/01/16 00:56:20;;;;;;;9.52;1.65;;;0.60;99.90;;;;;;5064256;28;20098;-70
2024/01/16 00:58:48;;;;;;;4.63;1.88;;;0.60;99.90;;;;;;5064096;28;20029;-70
2024/01/16 01:01:14;;;;;;;4.95;1.88;;;0.50;99.90;;;;;;5063901;28;20051;-70
2024/01/16 01:03:40;;;;;;;5.22;1.83;;;0.50;99.90;;;;;;5063643;28;20053;-70
2024/01/16 01:06:06;;;;;;;8.13;1.73;;;0.40;99.90;;;;;;5064421;28;20036;-70
2024/01/16 01:08:31;;;;;;;6.22;1.88;;;0.40;99.90;;;;;;5064472;28;20025;-70
2024/01/16 01:11:00;;;;;;;5.85;1.67;;;0.40;99.90;;;;;;5063878;28;20530;-71
2024/01/16 01:13:29;;;;;;;5.25;1.98;;;0.30;99.90;;;;;;5063874;28;20025;-70
2024/01/16 01:15:55;;;;;;;4.07;1.60;;;0.30;99.90;;;;;;5063884;28;20032;-70
2024/01/16 01:18:22;;;;;;;5.70;1.40;;;0.20;99.90;;;;;;5063649;28;20021;-70
2024/01/16 01:20:48;;;;;;;5.72;1.63;;;0.20;99.90;;;;;;5064060;28;20033;-70
2024/01/16 01:23:14;;;;;;;3.42;1.50;;;0.20;99.90;;;;;;5062442;28;20037;-70
2024/01/16 01:25:39;;;;;;;1.75;1.00;;;0.10;99.90;;;;;;5062270;28;20040;-70
2024/01/16 01:28:17;;;;;;;3.80;1.30;;;0.10;99.90;;;;;;5063571;28;20179;-70
2024/01/16 01:30:42;;;;;;;6.10;1.42;;;0.10;99.90;;;;;;5063588;28;20044;-69
2024/01/16 01:33:08;;;;;;;4.50;1.25;;;0.10;99.90;;;;;;5062834;28;20470;-70
2024/01/16 01:35:34;;;;;;;7.85;1.70;;;0.10;99.90;;;;;;5063571;28;20032;-70
2024/01/16 01:38:03;;;;;;;8.35;1.77;;;0.10;99.90;;;;;;5063759;28;20028;-71
2024/01/16 01:40:28;;;;;;;7.88;2.30;;;0.10;99.90;;;;;;5063495;28;20017;-71
2024/01/16 01:42:54;;;;;;;4.53;2.03;;;0.10;99.90;;;;;;5063707;28;20036;-70
2024/01/16 01:45:19;;;;;;;5.57;1.70;;;0.10;99.90;;;;;;5063256;28;20200;-69
2024/01/16 01:47:46;;;;;;;7.22;1.75;;;0.10;99.90;;;;;;5063116;28;20056;-70
2024/01/16 01:50:13;;;;;;;6.57;1.95;;;0.20;99.90;;;;;;5063516;28;20033;-72
2024/01/16 01:52:40;;;;;;;4.70;1.77;;;0.20;99.90;;;;;;5061430;28;20052;-71
2024/01/16 01:55:12;;;;;;;9.57;2.17;;;0.20;99.90;;;;;;5061937;28;20537;-71
2024/01/16 01:57:38;;;;;;;4.95;1.35;;;0.30;99.90;;;;;;5062964;28;20040;-70
2024/01/16 02:00:04;;;;;;;2.95;1.00;;;0.20;99.90;;;;;;5060768;28;20029;-71
2024/01/16 02:02:32;;;;;;;6.07;1.02;;;0.20;99.90;;;;;;5063958;28;20033;-71
2024/01/16 02:04:57;;;;;;;3.80;0.90;;;0.20;99.90;;;;;;5063040;28;20045;-72
2024/01/16 02:07:23;;;;;;;4.40;0.80;;;0.10;99.90;;;;;;5063308;28;20029;-72
2024/01/16 02:09:49;;;;;;;4.22;0.73;;;0.10;99.90;;;;;;5062276;28;20025;-71
2024/01/16 02:12:15;;;;;;;3.97;0.60;;;0.10;99.90;;;;;;5063420;28;20017;-71
2024/01/16 02:14:41;;;;;;;2.22;0.40;;;0.20;99.90;;;;;;5061687;28;20073;-74
2024/01/16 02:17:07;;;;;;;3.55;0.93;;;0.10;99.90;;;;;;5063461;28;20024;-72
2024/01/16 02:19:33;;;;;;;4.30;0.70;;;0.20;99.90;;;;;;5062049;28;20016;-73
2024/01/16 02:22:02;;;;;;;1.52;0.68;;;0.20;99.90;;;;;;5063093;28;20028;-71
2024/01/16 02:24:28;;;;;;;3.55;0.90;;;0.20;99.90;;;;;;5061643;28;20119;-74
2024/01/16 02:26:54;;;;;;;4.03;1.42;;;0.30;99.90;;;;;;5063340;28;20060;-72
2024/01/16 02:29:19;;;;;;;4.55;1.88;;;0.30;99.90;;;;;;5061569;28;20039;-73
2024/01/16 02:31:45;;;;;;;4.20;1.40;;;0.30;99.90;;;;;;5062691;28;20100;-74
2024/01/16 02:34:11;;;;;;;5.85;1.63;;;0.30;99.90;;;;;;5063480;28;20021;-74
2024/01/16 02:36:36;;;;;;;4.97;1.65;;;0.30;99.90;;;;;;5062592;28;20025;-71
2024/01/16 02:39:02;;;;;;;6.15;1.60;;;0.30;99.90;;;;;;5061738;28;20025;-74
2024/01/16 02:41:28;;;;;;;4.25;1.73;;;0.30;99.90;;;;;;5061688;28;20024;-75
2024/01/16 02:43:54;;;;;;;8.20;2.00;;;0.30;99.90;;;;;;5060464;28;20032;-71
2024/01/16 02:46:19;;;;;;;9.95;1.90;;;0.20;99.90;;;;;;5061147;28;20777;-72
2024/01/16 02:48:45;;;;;;;7.10;2.75;;;0.20;99.90;;;;;;5061379;28;20039;-73
2024/01/16 02:51:11;;;;;;;10.13;2.40;;;0.10;99.90;;;;;;5061891;28;20028;-75
2024/01/16 02:53:36;;;;;;;4.18;1.70;;;0.10;99.90;;;;;;5062470;28;20025;-71
2024/01/16 02:56:02;;;;;;;6.28;2.15;;;0.00;99.90;;;;;;5062731;28;20056;-73
2024/01/16 02:58:30;;;;;;;5.97;2.33;;;0.00;99.90;;;;;;5062834;28;20017;-77
2024/01/16 03:00:57;;;;;;;8.15;2.50;;;-0.10;99.90;;;;;;5061417;28;20029;-74
2024/01/16 03:03:23;;;;;;;7.00;2.10;;;-0.10;99.90;;;;;;5062090;28;20029;-73
2024/01/16 03:05:49;;;;;;;5.60;2.00;;;-0.10;99.90;;;;;;5061013;28;20033;-72
2024/01/16 03:08:15;;;;;;;9.77;2.30;;;0.00;99.90;;;;;;5061023;28;20029;-72
2024/01/16 03:10:41;;;;;;;12.30;2.40;;;-0.10;99.90;;;;;;5060721;28;20032;-74
2024/01/16 03:13:07;;;;;;;3.67;1.50;;;-0.10;99.90;;;;;;5062460;28;20041;-73
2024/01/16 03:15:33;;;;;;;3.47;1.58;;;0.00;99.90;;;;;;5062196;28;20021;-72
2024/01/16 03:18:00;;;;;;;6.47;1.73;;;0.00;99.90;;;;;;5062162;28;20048;-72
2024/01/16 03:20:25;;;;;;;13.18;1.90;;;0.00;99.90;;;;;;5061843;28;20021;-71
2024/01/16 03:22:51;;;;;;;7.82;2.00;;;0.10;99.90;;;;;;5062061;28;20027;-72
2024/01/16 03:25:21;;;;;;;5.82;2.33;;;0.10;99.90;;;;;;5060420;28;20045;-75
2024/01/16 03:27:47;;;;;;;11.35;2.40;;;0.10;99.90;;;;;;5059514;28;20025;-73
2024/01/16 03:30:13;;;;;;;10.52;2.25;;;0.10;99.90;;;;;;5060477;28;20668;-73
2024/01/16 03:32:39;;;;;;;10.85;2.38;;;0.10;99.90;;;;;;5060306;28;20051;-72
2024/01/16 03:35:06;;;;;;;6.93;2.38;;;0.00;99.90;;;;;;5061650;28;20035;-72
2024/01/16 03:37:33;;;;;;;10.90;2.22;;;0.10;99.90;;;;;;5061747;28;20055;-72
2024/01/16 03:39:59;;;;;;;8.02;2.55;;;0.00;99.90;;;;;;5060539;28;20033;-71
2024/01/16 03:42:25;;;;;;;10.48;2.35;;;0.00;99.90;;;;;;5060161;28;20028;-73
2024/01/16 03:44:51;;;;;;;10.55;2.55;;;-0.10;99.90;;;;;;5060075;28;20188;-70
2024/01/16 03:47:17;;;;;;;11.25;2.30;;;-0.10;99.90;;;;;;5061663;28;20733;-71
2024/01/16 03:49:43;;;;;;;13.20;3.08;;;-0.10;99.90;;;;;;5061807;28;20032;-71
2024/01/16 03:52:08;;;;;;;12.65;2.42;;;0.00;99.90;;;;;;5060016;28;20032;-71
2024/01/16 03:54:34;;;;;;;7.38;2.20;;;-0.10;99.90;;;;;;5061772;28;20029;-70
2024/01/16 03:56:59;;;;;;;13.13;2.42;;;-0.10;99.90;;;;;;5061500;28;20028;-72
2024/01/16 03:59:25;;;;;;;8.93;2.22;;;-0.10;99.90;;;;;;5061417;28;20028;-72
2024/01/16 04:01:50;;;;;;;9.90;2.50;;;-0.10;99.90;;;;;;5060164;28;20060;-69
2024/01/16 04:04:16;;;;;;;14.10;2.42;;;-0.10;99.90;;;;;;5059817;28;20033;-70
2024/01/16 04:06:43;;;;;;;7.57;1.95;;;-0.20;99.90;;;;;;5059763;28;20041;-72
2024/01/16 04:09:09;;;;;;;13.82;1.90;;;-0.20;99.90;;;;;;5061534;28;20532;-71
2024/01/16 04:11:35;;;;;;;13.43;2.33;;;-0.30;99.90;;;;;;5060980;28;20024;-71
2024/01/16 04:14:01;;;;;;;4.70;1.83;;;-0.30;99.90;;;;;;5059945;28;20462;-70
2024/01/16 04:16:28;;;;;;;5.45;1.88;;;-0.30;99.90;;;;;;5061531;28;20021;-73
2024/01/16 04:18:53;;;;;;;6.43;1.73;;;-0.30;99.90;;;;;;5061544;28;20440;-72
2024/01/16 04:21:19;;;;;;;7.50;2.08;;;-0.40;99.90;;;;;;5061126;28;20025;-73
2024/01/16 04:23:45;;;;;;;10.38;2.10;;;-0.40;99.90;;;;;;5059987;28;20475;-72
2024/01/16 04:26:10;;;;;;;6.55;1.50;;;-0.40;99.90;;;;;;5060484;28;20063;-71
2024/01/16 04:28:39;;;;;;;15.75;1.58;;;-0.40;99.90;;;;;;5059994;28;20044;-74
2024/01/16 04:31:05;;;;;;;9.02;1.35;;;-0.40;99.90;;;;;;5060241;28;20032;-72
2024/01/16 04:33:31;;;;;;;15.48;1.30;;;-0.40;99.90;;;;;;5060557;28;20017;-72
2024/01/16 04:35:57;;;;;;;10.15;1.52;;;-0.40;99.90;;;;;;5058138;28;20056;-73
2024/01/16 04:38:23;;;;;;;6.43;1.52;;;-0.50;99.90;;;;;;5060392;28;20021;-71
2024/01/16 04:40:49;;;;;;;12.05;1.75;;;-0.40;99.90;;;;;;5059303;28;20021;-70
2024/01/16 04:43:15;;;;;;;6.57;1.40;;;-0.40;99.90;;;;;;5058203;28;20029;-69
2024/01/16 04:45:41;;;;;;;8.90;1.65;;;-0.50;99.90;;;;;;5061268;28;20040;-71
2024/01/16 04:48:08;;;;;;;8.35;1.80;;;-0.50;99.90;;;;;;5060486;28;20555;-72
2024/01/16 04:50:34;;;;;;;5.97;1.27;;;-0.50;99.90;;;;;;5060205;28;20093;-70
2024/01/16 04:53:00;;;;;;;8.82;1.73;;;-0.50;99.90;;;;;;5057837;28;20052;-70
2024/01/16 04:55:27;;;;;;;10.20;1.60;;;-0.50;99.90;;;;;;5059040;28;20119;-69
2024/01/16 04:57:53;;;;;;;7.63;2.03;;;-0.50;99.90;;;;;;5057550;28;20053;-70
2024/01/16 05:00:20;;;;;;;8.07;1.65;;;-0.50;99.90;;;;;;5058858;28;20028;-70
2024/01/16 05:02:46;;;;;;;14.23;2.00;;;-0.40;99.90;;;;;;5054855;28;20087;-71
2024/01/16 05:05:12;;;;;;;7.07;1.65;;;-0.40;99.90;;;;;;5058182;28;20094;-70
2024/01/16 05:07:38;;;;;;;15.00;2.13;;;-0.40;99.90;;;;;;5061214;28;20028;-72
2024/01/16 05:10:04;;;;;;;9.48;1.63;;;-0.40;99.90;;;;;;5061690;28;20136;-72
2024/01/16 05:12:29;;;;;;;8.00;2.25;;;-0.40;99.90;;;;;;5061312;28;20033;-71
2024/01/16 05:14:55;;;;;;;10.02;2.58;;;-0.40;99.90;;;;;;5062394;28;20028;-70
2024/01/16 05:17:20;;;;;;;10.40;2.50;;;-0.40;99.90;;;;;;5060767;28;20490;-70
2024/01/16 05:19:46;;;;;;;5.57;1.48;;;-0.40;99.90;;;;;;5063378;28;20033;-70
2024/01/16 05:22:11;;;;;;;16.27;2.03;;;-0.40;99.90;;;;;;5064499;28;20025;-69
2024/01/16 05:24:37;;;;;;;7.00;1.50;;;-0.30;99.90;;;;;;5061677;28;20032;-72
2024/01/16 05:27:04;;;;;;;6.88;1.50;;;-0.30;99.90;;;;;;5061599;28;20048;-72
2024/01/16 05:29:31;;;;;;;9.98;1.90;;;-0.30;99.90;;;;;;5062061;28;20021;-71
2024/01/16 05:31:56;;;;;;;5.90;1.67;;;-0.30;99.90;;;;;;5064205;28;20024;-71
2024/01/16 05:34:22;;;;;;;8.95;2.13;;;-0.30;99.90;;;;;;5064402;28;20036;-70
2024/01/16 05:36:48;;;;;;;11.90;2.05;;;-0.30;99.90;;;;;;5062235;28;20419;-70
2024/01/16 05:39:14;;;;;;;12.05;1.95;;;-0.30;99.90;;;;;;5064184;28;20036;-70
2024/01/16 05:41:39;;;;;;;15.35;2.67;;;-0.40;99.90;;;;;;5062791;28;20561;-71
2024/01/16 05:44:05;;;;;;;9.10;2.33;;;-0.30;99.90;;;;;;5061071;28;20033;-70
2024/01/16 05:46:32;;;;;;;13.35;1.77;;;-0.30;99.90;;;;;;5063376;28;20033;-71
2024/01/16 05:48:58;;;;;;;7.28;1.83;;;-0.30;99.90;;;;;;5060532;28;20032;-69
2024/01/16 05:51:25;;;;;;;7.50;1.92;;;-0.30;99.90;;;;;;5061666;28;20021;-71
2024/01/16 05:53:51;;;;;;;7.78;2.15;;;-0.30;99.90;;;;;;5062640;28;20044;-70
2024/01/16 05:56:16;;;;;;;10.70;1.40;;;-0.30;99.90;;;;;;5061932;28;20510;-71
2024/01/16 05:58:42;;;;;;;11.60;1.58;;;-0.30;99.90;;;;;;5059138;28;20032;-70
2024/01/16 06:01:07;;;;;;;11.25;2.00;;;-0.30;99.90;;;;;;5062536;28;20021;-71
2024/01/16 06:03:33;;;;;;;14.27;2.28;;;-0.30;99.90;;;;;;5062651;28;20036;-71
2024/01/16 06:05:59;;;;;;;13.07;1.85;;;-0.30;99.90;;;;;;5061353;28;20033;-71
2024/01/16 06:08:25;;;;;;;14.15;1.65;;;-0.20;99.90;;;;;;5056222;28;20013;-72
2024/01/16 06:10:50;;;;;;;13.02;1.95;;;-0.20;99.90;;;;;;5060955;28;20056;-70
2024/01/16 06:13:19;;;;;;;15.27;2.20;;;-0.20;99.90;;;;;;5061569;28;20029;-72
2024/01/16 06:15:44;;;;;;;9.75;2.13;;;-0.30;99.90;;;;;;5063117;28;20028;-71
2024/01/16 06:18:10;;;;;;;12.18;2.55;;;-0.30;99.90;;;;;;5063069;28;20085;-72
2024/01/16 06:20:36;;;;;;;8.05;1.83;;;-0.30;99.90;;;;;;5060660;28;20027;-70
2024/01/16 06:23:02;;;;;;;20.35;2.38;;;-0.30;99.90;;;;;;5063064;28;20053;-72
2024/01/16 06:25:27;;;;;;;13.60;2.55;;;-0.30;99.90;;;;;;5062952;28;20482;-73
2024/01/16 06:27:53;;;;;;;7.55;2.38;;;-0.30;99.90;;;;;;5062787;28;20033;-71
2024/01/16 06:30:18;;;;;;;8.95;1.92;;;-0.30;99.90;;;;;;5061394;28;20048;-71
2024/01/16 06:32:44;;;;;;;18.25;3.13;;;-0.30;99.90;;;;;;5062051;28;20037;-71
2024/01/16 06:35:12;;;;;;;14.13;2.40;;;-0.30;99.90;;;;;;5060762;28;20025;-70
2024/01/16 06:37:41;;;;;;;9.25;2.20;;;-0.30;99.90;;;;;;5060795;28;20096;-72
2024/01/16 06:40:07;;;;;;;12.52;2.42;;;-0.30;99.90;;;;;;5060444;28;20393;-69
2024/01/16 06:42:33;;;;;;;5.93;1.50;;;-0.40;99.90;;;;;;5062294;28;20028;-69
2024/01/16 06:44:59;;;;;;;10.93;2.00;;;-0.40;99.90;;;;;;5062375;28;20036;-69
2024/01/16 06:47:25;;;;;;;11.35;1.80;;;-0.40;99.90;;;;;;5060969;28;20028;-70
2024/01/16 06:49:53;;;;;;;8.63;2.05;;;-0.40;99.90;;;;;;5060316;28;20088;-69
2024/01/16 06:52:20;;;;;;;11.80;2.10;;;-0.40;99.90;;;;;;5059390;28;20040;-69
2024/01/16 06:54:45;;;;;;;8.88;2.10;;;-0.40;99.90;;;;;;5060269;28;20112;-69
2024/01/16 06:57:14;;;;;;;16.05;2.53;;;-0.40;99.90;;;;;;5061097;28;20043;-70
2024/01/16 06:59:40;;;;;;;10.57;1.95;;;-0.40;99.90;;;;;;5059729;28;20021;-70
2024/01/16 07:02:06;;;;;;;13.63;2.17;;;-0.40;99.90;;;;;;5058853;28;20125;-70
2024/01/16 07:04:32;;;;;;;9.60;3.03;;;-0.50;99.90;;;;;;5061596;28;20061;-70
2024/01/16 07:06:59;;;;;;;10.75;2.78;;;-0.40;99.90;;;;;;5057835;28;20063;-70
2024/01/16 07:09:27;;;;;;;14.55;2.92;;;-0.40;99.90;;;;;;5060750;28;20112;-70
2024/01/16 07:11:52;;;;;;;10.85;2.33;;;-0.50;99.90;;;;;;5060699;28;20779;-69
2024/01/16 07:14:19;;;;;;;9.35;2.17;;;-0.50;99.90;;;;;;5059215;28;20394;-70
2024/01/16 07:16:45;;;;;;;16.50;2.35;;;-0.50;99.90;;;;;;5059818;28;20104;-70
2024/01/16 07:19:11;;;;;;;11.65;2.50;;;-0.50;99.90;;;;;;5061968;28;20061;-70
2024/01/16 07:21:37;;;;;;;10.63;2.00;;;-0.50;99.90;;;;;;5061457;28;20024;-70
2024/01/16 07:24:03;;;;;;;10.65;2.63;;;-0.50;99.90;;;;;;5059779;28;20021;-70
2024/01/16 07:26:29;;;;;;;13.05;2.47;;;-0.50;99.90;;;;;;5054601;28;20033;-70
2024/01/16 07:28:55;;;;;;;11.52;2.03;;;-0.50;99.90;;;;;;5051240;28;21108;-71
2024/01/16 07:31:20;;;;;;;5.18;1.90;;;-0.50;99.90;;;;;;5057510;28;20057;-70
2024/01/16 07:33:46;;;;;;;19.15;3.25;;;-0.50;99.90;;;;;;5059432;28;20079;-70
2024/01/16 07:36:11;;;;;;;12.23;2.30;;;-0.50;99.90;;;;;;5061043;28;20036;-70
2024/01/16 07:38:37;;;;;;;7.65;1.90;;;-0.50;99.90;;;;;;5061999;28;20025;-71
2024/01/16 07:41:03;;;;;;;18.38;2.63;;;-0.50;99.90;;;;;;5058281;28;20488;-69
2024/01/16 07:43:29;;;;;;;11.05;2.85;;;-0.50;99.90;;;;;;5057525;28;20028;-71
2024/01/16 07:45:55;;;;;;;20.90;2.42;;;-0.50;99.90;;;;;;5058469;28;20045;-71
2024/01/16 07:48:22;;;;;;;9.57;2.25;;;-0.50;99.90;;;;;;5061971;28;20024;-70
2024/01/16 07:50:48;;;;;;;11.73;2.67;;;-0.50;99.90;;;;;;5060161;28;20025;-70
2024/01/16 07:53:15;;;;;;;9.63;1.88;;;-0.40;99.90;;;;;;5059612;28;20033;-70
2024/01/16 07:55:41;;;;;;;13.40;2.33;;;-0.40;99.90;;;;;;5060426;28;20021;-70
2024/01/16 07:58:06;;;;;;;13.15;2.90;;;-0.40;99.90;;;;;;5060714;28;20036;-70
2024/01/16 08:00:32;;;;;;;13.80;2.95;;;-0.40;99.90;;;;;;5054322;28;20073;-70
2024/01/16 08:02:58;;;;;;;10.88;2.35;;;-0.30;99.90;;;;;;5057115;28;20033;-69
2024/01/16 08:05:25;;;;;;;14.45;2.92;;;-0.30;99.90;;;;;;5057091;28;20059;-69
2024/01/16 08:07:51;;;;;;;16.30;3.15;;;-0.30;99.90;;;;;;5060122;28;20025;-71
2024/01/16 08:10:17;;;;;;;14.27;2.85;;;-0.30;99.90;;;;;;5060322;28;20090;-69
2024/01/16 08:12:43;;;;;;;21.35;5.80;;;-0.30;99.90;;;;;;5059966;28;20095;-69
2024/01/16 08:15:09;;;;;;;9.43;2.15;;;-0.20;99.90;;;;;;5061117;28;20035;-70
2024/01/16 08:17:35;;;;;;;19.77;3.00;;;-0.20;99.90;;;;;;5061183;28;20016;-70
2024/01/16 08:20:00;;;;;;;11.95;2.60;;;-0.10;99.90;;;;;;5061656;28;20055;-71
2024/01/16 08:22:26;;;;;;;13.02;2.47;;;-0.20;99.90;;;;;;5060406;28;20104;-70
2024/01/16 08:24:52;;;;;;;18.23;2.72;;;-0.10;99.90;;;;;;5059928;28;20025;-70
2024/01/16 08:27:19;;;;;;;8.38;2.10;;;-0.10;99.90;;;;;;5061599;28;20025;-68
2024/01/16 08:29:45;;;;;;;9.32;1.95;;;0.00;99.90;;;;;;5061016;28;20021;-67
2024/01/16 08:32:10;;;;;;;12.98;2.42;;;0.00;99.90;;;;;;5059709;28;20039;-68
2024/01/16 08:34:36;;;;;;;9.23;2.20;;;0.10;99.90;;;;;;5059411;28;20025;-71
2024/01/16 08:37:03;;;;;;;13.38;2.50;;;0.10;99.90;;;;;;5059039;28;20044;-70
2024/01/16 08:39:33;;;;;;;11.00;2.10;;;0.10;99.90;;;;;;5056285;28;20025;-70
2024/01/16 08:41:59;;;;;;;14.30;2.53;;;0.20;99.90;;;;;;5047955;28;20032;-70
2024/01/16 08:44:25;;;;;;;13.40;2.35;;;0.30;99.90;;;;;;5062536;28;20051;-70
2024/01/16 08:46:51;;;;;;;6.55;1.98;;;0.30;99.90;;;;;;5062227;28;20108;-68
2024/01/16 08:49:17;;;;;;;8.27;2.33;;;0.40;99.90;;;;;;5063417;28;20604;-70
2024/01/16 08:51:43;;;;;;;12.93;2.72;;;0.40;99.90;;;;;;5063934;28;20045;-69
2024/01/16 08:54:08;;;;;;;11.52;1.98;;;0.40;99.90;;;;;;5064587;28;20032;-71
2024/01/16 08:56:34;;;;;;;13.02;3.13;;;0.40;99.90;;;;;;5063586;28;20021;-72
2024/01/16 08:58:59;;;;;;;13.05;3.00;;;0.40;99.90;;;;;;5063175;28;20032;-69
2024/01/16 09:01:25;;;;;;;17.05;3.92;;;0.40;99.90;;;;;;5065080;28;20551;-68
2024/01/16 09:03:51;;;;;;;14.77;3.03;;;0.50;99.90;;;;;;5064863;28;20033;-69
2024/01/16 09:06:17;;;;;;;20.77;4.03;;;0.50;99.90;;;;;;5064900;28;20029;-67
2024/01/16 09:08:44;;;;;;;14.80;3.47;;;0.50;99.90;;;;;;5064164;28;20021;-68
2024/01/16 09:11:11;;;;;;;20.60;4.05;;;0.50;99.90;;;;;;5063716;28;20017;-67
2024/01/16 09:13:37;;;;;;;16.30;3.95;;;0.60;99.90;;;;;;5064748;28;20139;-69
2024/01/16 09:16:04;;;;;;;12.18;4.53;;;0.60;99.90;;;;;;5063572;28;20025;-70
2024/01/16 09:18:29;;;;;;;29.65;10.38;;;0.60;99.90;;;;;;5064852;28;20017;-69
2024/01/16 09:20:55;;;;;;;29.83;7.20;;;0.60;99.90;;;;;;5064678;28;20036;-71
2024/01/16 09:23:21;;;;;;;19.10;5.78;;;0.60;99.90;;;;;;5064508;28;20029;-68
2024/01/16 09:25:46;;;;;;;9.32;2.75;;;0.60;99.90;;;;;;5064387;28;20041;-68
2024/01/16 09:28:12;;;;;;;18.10;4.32;;;0.70;99.90;;;;;;5063213;28;20088;-68
2024/01/16 09:30:38;;;;;;;16.55;4.38;;;0.70;99.90;;;;;;5063799;28;20025;-71
2024/01/16 09:33:06;;;;;;;10.25;4.53;;;0.70;99.90;;;;;;5064669;28;20073;-70
2024/01/16 09:35:33;;;;;;;17.00;3.13;;;0.90;99.90;;;;;;5064075;28;20033;-70
2024/01/16 09:37:59;;;;;;;9.82;3.55;;;0.90;99.90;;;;;;5064107;28;20028;-70
2024/01/16 09:40:26;;;;;;;13.10;3.45;;;0.80;99.90;;;;;;5063176;28;20032;-68
2024/01/16 09:42:52;;;;;;;10.38;2.67;;;0.80;99.90;;;;;;5062708;28;20111;-69
2024/01/16 09:45:24;;;;;;;8.48;3.00;;;0.90;99.90;;;;;;5062459;28;20398;-68
2024/01/16 09:47:51;;;;;;;12.77;2.88;;;1.10;99.90;;;;;;5064109;28;20032;-68
2024/01/16 09:50:18;;;;;;;5.45;2.22;;;1.30;99.90;;;;;;5063571;28;20024;-69
2024/01/16 09:52:46;;;;;;;10.95;2.72;;;1.50;99.90;;;;;;5062609;28;20029;-69
2024/01/16 09:55:12;;;;;;;13.52;3.28;;;1.80;99.90;;;;;;5063309;28;20052;-69
2024/01/16 09:57:41;;;;;;;15.38;3.10;;;2.00;99.90;;;;;;5063605;28;20025;-68
2024/01/16 10:00:13;;;;;;;12.13;2.88;;;2.30;99.90;;;;;;5062960;28;20494;-68
2024/01/16 10:02:40;;;;;;;14.65;3.40;;;2.40;99.90;;;;;;5062632;28;20040;-69
2024/01/16 10:05:08;;;;;;;9.23;3.30;;;2.60;99.90;;;;;;5063319;28;20049;-69
2024/01/16 10:07:37;;;;;;;11.18;2.80;;;2.60;99.90;;;;;;5063125;28;20017;-68
2024/01/16 10:10:03;;;;;;;13.73;3.45;;;2.60;99.90;;;;;;5063433;28;20059;-69
2024/01/16 10:12:29;;;;;;;8.75;3.00;;;2.60;99.90;;;;;;5061829;28;20588;-71
2024/01/16 10:14:56;;;;;;;9.15;3.03;;;2.50;99.90;;;;;;5064342;28;20090;-68
2024/01/16 10:17:22;;;;;;;12.65;3.17;;;2.30;99.90;;;;;;5064113;28;20037;-67
2024/01/16 10:19:52;;;;;;;13.65;3.53;;;2.20;99.90;;;;;;5063277;28;20060;-69
2024/01/16 10:22:25;;;;;;;10.77;3.17;;;2.10;99.90;;;;;;5063848;28;20031;-70
2024/01/16 10:25:19;;;;;;;14.10;3.30;;;1.90;99.90;;;;;;5062896;28;20076;-70
2024/01/16 10:27:46;;;;;;;7.57;3.45;;;1.90;99.90;;;;;;5061442;28;20032;-69
2024/01/16 10:30:12;;;;;;;11.20;3.50;;;1.80;99.90;;;;;;5063314;28;20028;-71
2024/01/16 10:32:42;;;;;;;9.63;3.78;;;1.90;99.90;;;;;;5063019;28;21002;-69
2024/01/16 10:35:10;;;;;;;11.98;3.95;;;1.80;99.90;;;;;;5062799;28;20059;-70
2024/01/16 10:37:53;;;;;;;22.90;5.03;;;1.80;99.90;;;;;;5062909;28;20084;-69
2024/01/16 10:40:20;;;;;;;13.50;3.42;;;1.80;99.90;;;;;;5063541;28;20033;-69
2024/01/16 10:43:17;;;;;;;12.63;4.80;;;1.70;99.90;;;;;;5063121;28;20055;-68
2024/01/16 10:45:43;;;;;;;17.65;4.38;;;1.70;99.90;;;;;;5063898;28;20041;-68
2024/01/16 10:48:08;;;;;;;25.85;5.70;;;1.70;99.90;;;;;;5063374;28;20215;-68
2024/01/16 10:50:35;;;;;;;17.00;5.18;;;1.80;99.90;;;;;;5063056;28;20032;-68
2024/01/16 10:53:05;;;;;;;13.48;4.90;;;1.80;99.90;;;;;;5063017;28;20044;-70
2024/01/16 10:55:35;;;;;;;11.65;4.50;;;1.90;99.90;;;;;;5062667;28;20033;-69
2024/01/16 10:58:02;;;;;;;11.82;4.28;;;2.00;99.90;;;;;;5061954;28;20374;-70
2024/01/16 11:00:30;;;;;;;11.40;4.22;;;2.00;99.90;;;;;;5063562;28;20043;-71
2024/01/16 11:03:05;;;;;;;18.38;5.65;;;2.10;99.90;;;;;;5062987;28;20104;-67
2024/01/16 11:05:33;;;;;;;12.68;3.67;;;2.10;99.90;;;;;;5061951;28;20292;-69
2024/01/16 11:08:05;;;;;;;16.83;5.05;;;2.10;99.90;;;;;;5063092;28;20048;-68
2024/01/16 11:10:32;;;;;;;15.40;5.50;;;2.20;99.90;;;;;;5062785;28;20029;-68
2024/01/16 11:13:00;;;;;;;14.07;4.85;;;2.20;99.90;;;;;;5063304;28;20021;-69
2024/01/16 11:15:28;;;;;;;17.23;3.97;;;2.30;99.90;;;;;;5062634;28;20075;-69
2024/01/16 11:17:55;;;;;;;13.43;4.32;;;2.40;99.90;;;;;;5062511;28;20021;-69
2024/01/16 11:20:21;;;;;;;13.45;5.13;;;2.60;99.90;;;;;;5063058;28;20053;-69
2024/01/16 11:22:49;;;;;;;11.43;4.03;;;2.90;99.90;;;;;;5061396;28;20859;-69
2024/01/16 11:25:18;;;;;;;11.82;4.70;;;3.10;99.90;;;;;;5062089;28;20038;-69
2024/01/16 11:27:47;;;;;;;16.63;4.45;;;3.40;99.90;;;;;;5062608;28;20043;-69
2024/01/16 11:30:29;;;;;;;11.68;4.13;;;3.50;99.90;;;;;;5061292;28;20412;-69
2024/01/16 11:32:55;;;;;;;14.60;4.28;;;3.60;99.90;;;;;;5063024;28;20558;-70
2024/01/16 11:35:36;;;;;;;14.52;4.00;;;3.40;99.90;;;;;;5062868;28;20485;-69
2024/01/16 11:38:09;;;;;;;14.75;4.28;;;3.30;99.90;;;;;;5062132;28;20017;-70
2024/01/16 11:40:35;;;;;;;13.20;3.92;;;3.10;99.90;;;;;;5061836;28;20021;-72
2024/01/16 11:43:32;;;;;;;10.82;3.72;;;3.00;99.90;;;;;;5062904;28;20017;-69
2024/01/16 11:46:08;;;;;;;9.70;4.10;;;2.60;99.90;;;;;;5062035;28;20067;-69
2024/01/16 11:48:35;;;;;;;14.25;4.50;;;2.50;99.90;;;;;;5061465;28;20029;-70
2024/01/16 11:51:21;;;;;;;11.98;4.55;;;2.40;99.90;;;;;;5061933;28;20386;-69
2024/01/16 11:53:46;;;;;;;15.93;4.93;;;2.30;99.90;;;;;;5060886;28;20055;-70
2024/01/16 11:56:38;;;;;;;15.10;4.25;;;2.20;99.90;;;;;;5062603;28;20021;-70
2024/01/16 11:59:41;;;;;;;14.98;3.92;;;2.10;99.90;;;;;;5061970;28;20432;-70
2024/01/16 12:02:17;;;;;;;13.35;4.75;;;1.90;99.90;;;;;;5062343;28;20047;-69
2024/01/16 12:04:42;;;;;;;16.23;5.47;;;1.90;99.90;;;;;;5061899;28;20068;-69
2024/01/16 12:07:08;;;;;;;11.60;3.78;;;1.80;99.90;;;;;;5062136;28;20025;-69
2024/01/16 12:09:34;;;;;;;12.77;4.75;;;1.70;99.90;;;;;;5062367;28;20021;-71
2024/01/16 12:12:01;;;;;;;15.05;4.65;;;1.70;99.90;;;;;;5062150;28;20076;-70
2024/01/16 12:14:27;;;;;;;14.27;5.90;;;1.60;99.90;;;;;;5062185;28;20037;-69
2024/01/16 12:17:07;;;;;;;18.33;5.45;;;1.60;99.90;;;;;;5062012;28;20028;-68
2024/01/16 12:19:33;;;;;;;19.77;4.43;;;1.60;99.90;;;;;;5060839;28;20033;-71
2024/01/16 12:21:59;;;;;;;27.08;5.90;;;1.60;99.90;;;;;;5062217;28;20073;-70
2024/01/16 12:24:24;;;;;;;15.52;5.15;;;1.60;99.90;;;;;;5062195;28;20021;-69
2024/01/16 12:26:50;;;;;;;19.45;5.50;;;1.60;99.90;;;;;;5061668;28;20048;-69
2024/01/16 12:29:18;;;;;;;10.77;4.95;;;1.60;99.90;;;;;;5062247;28;20028;-70
2024/01/16 12:31:43;;;;;;;16.08;5.18;;;1.60;99.90;;;;;;5060260;28;20055;-67
2024/01/16 12:34:09;;;;;;;13.38;5.85;;;1.60;99.90;;;;;;5061080;28;20025;-70
2024/01/16 12:36:36;;;;;;;16.08;5.25;;;1.60;99.90;;;;;;5062209;28;20024;-70
2024/01/16 12:39:02;;;;;;;17.55;5.47;;;1.60;99.90;;;;;;5062081;28;20051;-70
2024/01/16 12:41:43;;;;;;;18.70;5.50;;;1.60;99.90;;;;;;5061831;28;20037;-70
2024/01/16 12:44:09;;;;;;;15.52;4.45;;;1.60;99.90;;;;;;5060538;28;20017;-68
2024/01/16 12:46:34;;;;;;;13.52;4.95;;;1.60;99.90;;;;;;5061918;28;20045;-68